Ziguinchor, Senegal
Current Conditions -  °F | °C
As of 10:00 PM on Saturday 25 Oct 2014 (Local Time) from GOGG Reporting Station
Scattered Clouds Scattered Clouds  
Wind Chill: 73°   Ceiling: Unl
Heat Index: 73°   Visibility: 5mi
Dew Point: 72°   Wind: 2mph
Humidity: 94%   Direction: NA
Pressure: 29.85"   Gusts: NA
Location:  12.59°N, 16.29°W
Report Text: GOGG 252200Z VRB02KT 8000 SCT015 SCT130 23/22 Q1011
Loading
Personal Weather Stations






























Interactive Weather Map
Tropical Storm Tracking
New forecast layout! Learn more

10-Day Weather Forecast

Advertisements
Track Severe Weather on mobile